sensor_id;sensor_type;location;lat;lon;timestamp;P1;durP1;ratioP1;P2;durP2;ratioP2
43933;SDS011;59081;42.706;23.306;2023-04-06T00:01:07;15.70;;;9.48;;
43933;SDS011;59081;42.706;23.306;2023-04-06T00:03:49;14.05;;;8.05;;
43933;SDS011;59081;42.706;23.306;2023-04-06T00:06:24;11.38;;;7.78;;
43933;SDS011;59081;42.706;23.306;2023-04-06T00:14:52;12.40;;;8.68;;
43933;SDS011;59081;42.706;23.306;2023-04-06T00:17:32;14.10;;;9.07;;
43933;SDS011;59081;42.706;23.306;2023-04-06T00:20:10;11.73;;;9.40;;
43933;SDS011;59081;42.706;23.306;2023-04-06T00:25:26;11.75;;;7.82;;
43933;SDS011;59081;42.706;23.306;2023-04-06T00:27:58;13.52;;;9.70;;
43933;SDS011;59081;42.706;23.306;2023-04-06T00:30:35;12.00;;;9.07;;
43933;SDS011;59081;42.706;23.306;2023-04-06T00:33:13;11.57;;;8.80;;
43933;SDS011;59081;42.706;23.306;2023-04-06T00:36:13;10.95;;;8.27;;
43933;SDS011;59081;42.706;23.306;2023-04-06T00:38:46;10.98;;;8.15;;
43933;SDS011;59081;42.706;23.306;2023-04-06T00:41:34;16.27;;;9.35;;
43933;SDS011;59081;42.706;23.306;2023-04-06T00:44:08;15.32;;;8.68;;
43933;SDS011;59081;42.706;23.306;2023-04-06T00:46:42;13.30;;;8.48;;
43933;SDS011;59081;42.706;23.306;2023-04-06T00:49:22;14.82;;;8.82;;
43933;SDS011;59081;42.706;23.306;2023-04-06T00:51:59;13.82;;;9.20;;
43933;SDS011;59081;42.706;23.306;2023-04-06T00:57:06;12.30;;;8.10;;
43933;SDS011;59081;42.706;23.306;2023-04-06T00:59:43;13.82;;;9.30;;
43933;SDS011;59081;42.706;23.306;2023-04-06T01:02:18;16.63;;;9.57;;
43933;SDS011;59081;42.706;23.306;2023-04-06T01:05:03;11.40;;;9.00;;
43933;SDS011;59081;42.706;23.306;2023-04-06T01:10:24;12.45;;;8.75;;
43933;SDS011;59081;42.706;23.306;2023-04-06T01:13:05;12.25;;;8.07;;
43933;SDS011;59081;42.706;23.306;2023-04-06T01:15:37;14.65;;;10.90;;
43933;SDS011;59081;42.706;23.306;2023-04-06T01:18:09;16.33;;;9.82;;
43933;SDS011;59081;42.706;23.306;2023-04-06T01:20:45;13.73;;;9.43;;
43933;SDS011;59081;42.706;23.306;2023-04-06T01:23:29;15.70;;;9.43;;
43933;SDS011;59081;42.706;23.306;2023-04-06T01:26:10;15.68;;;9.40;;
43933;SDS011;59081;42.706;23.306;2023-04-06T01:31:26;15.63;;;10.32;;
43933;SDS011;59081;42.706;23.306;2023-04-06T01:36:33;15.43;;;9.70;;
43933;SDS011;59081;42.706;23.306;2023-04-06T01:41:42;16.10;;;10.40;;
43933;SDS011;59081;42.706;23.306;2023-04-06T01:44:24;18.58;;;9.90;;
43933;SDS011;59081;42.706;23.306;2023-04-06T01:50:12;16.70;;;10.20;;
43933;SDS011;59081;42.706;23.306;2023-04-06T01:59:09;15.95;;;10.10;;
43933;SDS011;59081;42.706;23.306;2023-04-06T02:02:15;15.93;;;10.80;;
43933;SDS011;59081;42.706;23.306;2023-04-06T02:05:00;16.15;;;10.98;;
43933;SDS011;59081;42.706;23.306;2023-04-06T02:10:38;16.00;;;10.50;;
43933;SDS011;59081;42.706;23.306;2023-04-06T02:19:08;17.75;;;10.38;;
43933;SDS011;59081;42.706;23.306;2023-04-06T02:21:40;16.08;;;10.55;;
43933;SDS011;59081;42.706;23.306;2023-04-06T02:24:22;15.55;;;11.00;;
43933;SDS011;59081;42.706;23.306;2023-04-06T02:30:03;14.82;;;10.45;;
43933;SDS011;59081;42.706;23.306;2023-04-06T02:32:47;17.70;;;11.13;;
43933;SDS011;59081;42.706;23.306;2023-04-06T02:35:21;16.33;;;10.80;;
43933;SDS011;59081;42.706;23.306;2023-04-06T02:38:00;13.82;;;9.88;;
43933;SDS011;59081;42.706;23.306;2023-04-06T02:40:50;17.05;;;10.35;;
43933;SDS011;59081;42.706;23.306;2023-04-06T02:43:33;12.75;;;8.50;;
43933;SDS011;59081;42.706;23.306;2023-04-06T02:46:16;14.43;;;10.13;;
43933;SDS011;59081;42.706;23.306;2023-04-06T02:48:57;13.88;;;10.23;;
43933;SDS011;59081;42.706;23.306;2023-04-06T02:51:37;11.80;;;8.10;;
43933;SDS011;59081;42.706;23.306;2023-04-06T02:56:51;18.35;;;10.02;;
43933;SDS011;59081;42.706;23.306;2023-04-06T02:59:30;13.65;;;9.27;;
43933;SDS011;59081;42.706;23.306;2023-04-06T03:02:04;12.40;;;7.60;;
43933;SDS011;59081;42.706;23.306;2023-04-06T03:04:31;12.80;;;9.25;;
43933;SDS011;59081;42.706;23.306;2023-04-06T03:07:06;12.98;;;7.60;;
43933;SDS011;59081;42.706;23.306;2023-04-06T03:09:36;11.85;;;8.50;;
43933;SDS011;59081;42.706;23.306;2023-04-06T03:12:08;13.57;;;8.82;;
43933;SDS011;59081;42.706;23.306;2023-04-06T03:14:54;14.65;;;8.82;;
43933;SDS011;59081;42.706;23.306;2023-04-06T03:20:03;8.55;;;5.25;;
43933;SDS011;59081;42.706;23.306;2023-04-06T03:22:44;9.80;;;6.88;;
43933;SDS011;59081;42.706;23.306;2023-04-06T03:41:06;16.13;;;10.52;;
43933;SDS011;59081;42.706;23.306;2023-04-06T03:43:40;16.38;;;10.43;;
43933;SDS011;59081;42.706;23.306;2023-04-06T03:48:51;17.95;;;11.88;;
43933;SDS011;59081;42.706;23.306;2023-04-06T03:51:28;19.65;;;11.82;;
43933;SDS011;59081;42.706;23.306;2023-04-06T03:54:05;22.98;;;13.05;;
43933;SDS011;59081;42.706;23.306;2023-04-06T03:56:48;15.45;;;9.93;;
43933;SDS011;59081;42.706;23.306;2023-04-06T03:59:14;20.92;;;12.95;;
43933;SDS011;59081;42.706;23.306;2023-04-06T04:01:50;18.70;;;12.50;;
43933;SDS011;59081;42.706;23.306;2023-04-06T04:04:42;17.00;;;11.57;;
43933;SDS011;59081;42.706;23.306;2023-04-06T04:07:16;17.55;;;12.18;;
43933;SDS011;59081;42.706;23.306;2023-04-06T04:09:56;18.85;;;10.70;;
43933;SDS011;59081;42.706;23.306;2023-04-06T04:12:37;20.08;;;13.15;;
43933;SDS011;59081;42.706;23.306;2023-04-06T04:15:06;20.77;;;12.52;;
43933;SDS011;59081;42.706;23.306;2023-04-06T04:17:33;22.63;;;11.93;;
43933;SDS011;59081;42.706;23.306;2023-04-06T04:23:24;19.30;;;12.63;;
43933;SDS011;59081;42.706;23.306;2023-04-06T04:26:00;18.80;;;11.15;;
43933;SDS011;59081;42.706;23.306;2023-04-06T04:28:31;20.60;;;11.57;;
43933;SDS011;59081;42.706;23.306;2023-04-06T04:31:03;21.25;;;11.30;;
43933;SDS011;59081;42.706;23.306;2023-04-06T04:33:47;16.27;;;9.40;;
43933;SDS011;59081;42.706;23.306;2023-04-06T04:36:22;18.80;;;11.18;;
43933;SDS011;59081;42.706;23.306;2023-04-06T04:39:06;16.63;;;11.07;;
43933;SDS011;59081;42.706;23.306;2023-04-06T04:41:33;17.10;;;10.55;;
43933;SDS011;59081;42.706;23.306;2023-04-06T04:44:09;26.23;;;12.05;;
43933;SDS011;59081;42.706;23.306;2023-04-06T04:46:35;25.27;;;12.25;;
43933;SDS011;59081;42.706;23.306;2023-04-06T04:49:09;17.55;;;9.27;;
43933;SDS011;59081;42.706;23.306;2023-04-06T04:57:15;17.13;;;9.27;;
43933;SDS011;59081;42.706;23.306;2023-04-06T05:02:24;22.38;;;12.30;;
43933;SDS011;59081;42.706;23.306;2023-04-06T05:05:08;22.70;;;12.10;;
43933;SDS011;59081;42.706;23.306;2023-04-06T05:10:45;20.55;;;11.38;;
43933;SDS011;59081;42.706;23.306;2023-04-06T05:13:38;14.75;;;9.02;;
43933;SDS011;59081;42.706;23.306;2023-04-06T05:16:16;16.98;;;10.80;;
43933;SDS011;59081;42.706;23.306;2023-04-06T05:18:44;16.77;;;9.85;;
43933;SDS011;59081;42.706;23.306;2023-04-06T05:21:16;19.45;;;10.05;;
43933;SDS011;59081;42.706;23.306;2023-04-06T05:23:50;13.90;;;8.60;;
43933;SDS011;59081;42.706;23.306;2023-04-06T05:26:19;22.15;;;11.82;;
43933;SDS011;59081;42.706;23.306;2023-04-06T05:28:52;14.93;;;9.68;;
43933;SDS011;59081;42.706;23.306;2023-04-06T05:31:25;15.77;;;9.35;;
43933;SDS011;59081;42.706;23.306;2023-04-06T05:33:59;19.00;;;11.10;;
43933;SDS011;59081;42.706;23.306;2023-04-06T05:36:25;21.10;;;12.75;;
43933;SDS011;59081;42.706;23.306;2023-04-06T05:39:00;22.63;;;12.02;;
43933;SDS011;59081;42.706;23.306;2023-04-06T05:44:33;18.60;;;11.38;;
43933;SDS011;59081;42.706;23.306;2023-04-06T05:47:25;21.52;;;11.35;;
43933;SDS011;59081;42.706;23.306;2023-04-06T05:49:54;16.45;;;11.05;;
43933;SDS011;59081;42.706;23.306;2023-04-06T05:52:55;19.10;;;10.75;;
43933;SDS011;59081;42.706;23.306;2023-04-06T05:55:21;19.48;;;12.18;;
43933;SDS011;59081;42.706;23.306;2023-04-06T05:57:50;20.23;;;11.55;;
43933;SDS011;59081;42.706;23.306;2023-04-06T06:00:25;22.23;;;12.15;;
43933;SDS011;59081;42.706;23.306;2023-04-06T06:02:51;22.65;;;11.80;;
43933;SDS011;59081;42.706;23.306;2023-04-06T06:05:19;22.08;;;12.73;;
43933;SDS011;59081;42.706;23.306;2023-04-06T06:07:50;24.02;;;12.68;;
43933;SDS011;59081;42.706;23.306;2023-04-06T06:10:41;17.55;;;12.50;;
43933;SDS011;59081;42.706;23.306;2023-04-06T06:13:18;15.73;;;10.85;;
43933;SDS011;59081;42.706;23.306;2023-04-06T06:18:45;19.55;;;9.50;;
43933;SDS011;59081;42.706;23.306;2023-04-06T06:21:16;12.77;;;7.57;;
43933;SDS011;59081;42.706;23.306;2023-04-06T06:23:51;18.60;;;9.48;;
43933;SDS011;59081;42.706;23.306;2023-04-06T06:26:25;18.73;;;8.75;;
43933;SDS011;59081;42.706;23.306;2023-04-06T06:31:30;19.35;;;8.93;;
43933;SDS011;59081;42.706;23.306;2023-04-06T06:36:51;17.17;;;9.45;;
43933;SDS011;59081;42.706;23.306;2023-04-06T06:39:27;16.20;;;8.75;;
43933;SDS011;59081;42.706;23.306;2023-04-06T06:42:18;12.43;;;8.45;;
43933;SDS011;59081;42.706;23.306;2023-04-06T06:47:38;13.45;;;7.40;;
43933;SDS011;59081;42.706;23.306;2023-04-06T06:52:46;15.15;;;8.93;;
43933;SDS011;59081;42.706;23.306;2023-04-06T06:55:22;12.68;;;8.02;;
43933;SDS011;59081;42.706;23.306;2023-04-06T06:57:54;12.63;;;8.40;;
43933;SDS011;59081;42.706;23.306;2023-04-06T07:00:22;15.25;;;7.45;;
43933;SDS011;59081;42.706;23.306;2023-04-06T07:02:56;26.67;;;10.85;;
43933;SDS011;59081;42.706;23.306;2023-04-06T07:05:28;18.88;;;11.32;;
43933;SDS011;59081;42.706;23.306;2023-04-06T07:07:54;20.38;;;12.27;;
43933;SDS011;59081;42.706;23.306;2023-04-06T07:10:23;13.35;;;8.52;;
43933;SDS011;59081;42.706;23.306;2023-04-06T07:13:08;14.50;;;8.40;;
43933;SDS011;59081;42.706;23.306;2023-04-06T07:15:47;10.43;;;5.05;;
43933;SDS011;59081;42.706;23.306;2023-04-06T07:18:16;11.60;;;6.57;;
43933;SDS011;59081;42.706;23.306;2023-04-06T07:20:48;17.63;;;9.02;;
43933;SDS011;59081;42.706;23.306;2023-04-06T07:26:33;13.57;;;9.13;;
43933;SDS011;59081;42.706;23.306;2023-04-06T07:29:05;15.20;;;8.02;;
43933;SDS011;59081;42.706;23.306;2023-04-06T07:31:44;17.58;;;6.95;;
43933;SDS011;59081;42.706;23.306;2023-04-06T07:34:10;14.95;;;9.05;;
43933;SDS011;59081;42.706;23.306;2023-04-06T07:36:41;18.35;;;9.95;;
43933;SDS011;59081;42.706;23.306;2023-04-06T07:39:07;17.35;;;9.20;;
43933;SDS011;59081;42.706;23.306;2023-04-06T07:41:36;12.52;;;8.23;;
43933;SDS011;59081;42.706;23.306;2023-04-06T07:44:02;18.58;;;9.57;;
43933;SDS011;59081;42.706;23.306;2023-04-06T07:46:30;13.70;;;8.77;;
43933;SDS011;59081;42.706;23.306;2023-04-06T07:48:59;12.82;;;6.53;;
43933;SDS011;59081;42.706;23.306;2023-04-06T07:51:31;8.25;;;4.63;;
43933;SDS011;59081;42.706;23.306;2023-04-06T07:56:55;14.27;;;8.95;;
43933;SDS011;59081;42.706;23.306;2023-04-06T07:59:28;13.73;;;9.20;;
43933;SDS011;59081;42.706;23.306;2023-04-06T08:01:53;9.27;;;5.57;;
43933;SDS011;59081;42.706;23.306;2023-04-06T08:04:22;11.48;;;6.45;;
43933;SDS011;59081;42.706;23.306;2023-04-06T08:07:00;13.73;;;8.52;;
43933;SDS011;59081;42.706;23.306;2023-04-06T08:09:34;11.23;;;7.05;;
43933;SDS011;59081;42.706;23.306;2023-04-06T08:12:02;9.00;;;5.55;;
43933;SDS011;59081;42.706;23.306;2023-04-06T08:14:47;10.40;;;5.82;;
43933;SDS011;59081;42.706;23.306;2023-04-06T08:17:16;8.63;;;6.40;;
43933;SDS011;59081;42.706;23.306;2023-04-06T08:19:47;9.63;;;6.78;;
43933;SDS011;59081;42.706;23.306;2023-04-06T08:22:18;13.50;;;7.70;;
43933;SDS011;59081;42.706;23.306;2023-04-06T08:24:51;13.48;;;8.23;;
43933;SDS011;59081;42.706;23.306;2023-04-06T08:27:23;13.85;;;6.05;;
43933;SDS011;59081;42.706;23.306;2023-04-06T08:29:49;9.95;;;6.53;;
43933;SDS011;59081;42.706;23.306;2023-04-06T08:32:16;14.45;;;7.60;;
43933;SDS011;59081;42.706;23.306;2023-04-06T08:34:53;9.35;;;5.47;;
43933;SDS011;59081;42.706;23.306;2023-04-06T08:37:20;9.63;;;5.68;;
43933;SDS011;59081;42.706;23.306;2023-04-06T08:39:58;12.85;;;7.28;;
43933;SDS011;59081;42.706;23.306;2023-04-06T08:42:49;11.45;;;6.43;;
43933;SDS011;59081;42.706;23.306;2023-04-06T08:45:26;9.85;;;6.35;;
43933;SDS011;59081;42.706;23.306;2023-04-06T08:47:52;12.75;;;8.38;;
43933;SDS011;59081;42.706;23.306;2023-04-06T08:50:21;9.23;;;4.18;;
43933;SDS011;59081;42.706;23.306;2023-04-06T08:52:49;9.32;;;6.72;;
43933;SDS011;59081;42.706;23.306;2023-04-06T08:55:18;16.70;;;9.57;;
43933;SDS011;59081;42.706;23.306;2023-04-06T08:57:48;11.00;;;5.28;;
43933;SDS011;59081;42.706;23.306;2023-04-06T09:00:17;9.68;;;4.90;;
43933;SDS011;59081;42.706;23.306;2023-04-06T09:02:47;14.93;;;8.13;;
43933;SDS011;59081;42.706;23.306;2023-04-06T09:08:00;12.75;;;7.60;;
43933;SDS011;59081;42.706;23.306;2023-04-06T09:10:26;9.52;;;6.80;;
43933;SDS011;59081;42.706;23.306;2023-04-06T09:13:02;12.57;;;7.97;;
43933;SDS011;59081;42.706;23.306;2023-04-06T09:15:29;11.38;;;8.32;;
43933;SDS011;59081;42.706;23.306;2023-04-06T09:17:58;9.15;;;5.85;;
43933;SDS011;59081;42.706;23.306;2023-04-06T09:20:27;14.40;;;7.20;;
43933;SDS011;59081;42.706;23.306;2023-04-06T09:22:56;16.02;;;7.22;;
43933;SDS011;59081;42.706;23.306;2023-04-06T09:25:30;12.18;;;8.43;;
43933;SDS011;59081;42.706;23.306;2023-04-06T09:28:00;10.45;;;6.95;;
43933;SDS011;59081;42.706;23.306;2023-04-06T09:30:31;12.38;;;7.18;;
43933;SDS011;59081;42.706;23.306;2023-04-06T09:32:57;14.50;;;9.43;;
43933;SDS011;59081;42.706;23.306;2023-04-06T09:35:24;12.02;;;8.30;;
43933;SDS011;59081;42.706;23.306;2023-04-06T09:37:52;14.55;;;8.13;;
43933;SDS011;59081;42.706;23.306;2023-04-06T09:40:21;9.93;;;6.43;;
43933;SDS011;59081;42.706;23.306;2023-04-06T09:42:47;11.57;;;7.43;;
43933;SDS011;59081;42.706;23.306;2023-04-06T09:45:18;12.70;;;6.57;;
43933;SDS011;59081;42.706;23.306;2023-04-06T09:47:44;10.82;;;6.85;;
43933;SDS011;59081;42.706;23.306;2023-04-06T09:50:11;14.65;;;7.75;;
43933;SDS011;59081;42.706;23.306;2023-04-06T09:52:41;12.93;;;7.72;;
43933;SDS011;59081;42.706;23.306;2023-04-06T09:55:34;15.77;;;8.10;;
43933;SDS011;59081;42.706;23.306;2023-04-06T09:58:06;13.88;;;7.80;;
43933;SDS011;59081;42.706;23.306;2023-04-06T10:00:43;10.13;;;6.80;;
43933;SDS011;59081;42.706;23.306;2023-04-06T10:06:04;12.60;;;7.18;;
43933;SDS011;59081;42.706;23.306;2023-04-06T10:08:35;10.55;;;7.70;;
43933;SDS011;59081;42.706;23.306;2023-04-06T10:11:08;11.43;;;7.10;;
43933;SDS011;59081;42.706;23.306;2023-04-06T10:13:35;6.13;;;4.35;;
43933;SDS011;59081;42.706;23.306;2023-04-06T10:16:04;7.50;;;5.25;;
43933;SDS011;59081;42.706;23.306;2023-04-06T10:21:04;9.23;;;6.00;;
43933;SDS011;59081;42.706;23.306;2023-04-06T10:23:43;7.90;;;5.35;;
43933;SDS011;59081;42.706;23.306;2023-04-06T10:26:13;7.80;;;5.03;;
43933;SDS011;59081;42.706;23.306;2023-04-06T10:28:42;10.20;;;6.45;;
43933;SDS011;59081;42.706;23.306;2023-04-06T10:31:09;11.40;;;6.85;;
43933;SDS011;59081;42.706;23.306;2023-04-06T10:33:37;7.68;;;4.90;;
43933;SDS011;59081;42.706;23.306;2023-04-06T10:36:13;10.55;;;6.90;;
43933;SDS011;59081;42.706;23.306;2023-04-06T10:38:40;11.63;;;7.05;;
43933;SDS011;59081;42.706;23.306;2023-04-06T10:41:08;9.80;;;5.88;;
43933;SDS011;59081;42.706;23.306;2023-04-06T10:43:36;9.48;;;6.93;;
43933;SDS011;59081;42.706;23.306;2023-04-06T10:46:03;9.95;;;6.88;;
43933;SDS011;59081;42.706;23.306;2023-04-06T10:48:37;8.73;;;6.30;;
43933;SDS011;59081;42.706;23.306;2023-04-06T10:51:28;9.60;;;5.75;;
43933;SDS011;59081;42.706;23.306;2023-04-06T10:53:57;9.43;;;5.57;;
43933;SDS011;59081;42.706;23.306;2023-04-06T10:56:28;9.63;;;6.57;;
43933;SDS011;59081;42.706;23.306;2023-04-06T10:58:57;7.97;;;5.00;;
43933;SDS011;59081;42.706;23.306;2023-04-06T11:01:25;10.63;;;7.78;;
43933;SDS011;59081;42.706;23.306;2023-04-06T11:03:55;10.50;;;7.13;;
43933;SDS011;59081;42.706;23.306;2023-04-06T11:06:25;12.25;;;6.43;;
43933;SDS011;59081;42.706;23.306;2023-04-06T11:08:56;12.40;;;6.38;;
43933;SDS011;59081;42.706;23.306;2023-04-06T11:11:24;8.45;;;5.35;;
43933;SDS011;59081;42.706;23.306;2023-04-06T11:13:55;9.68;;;5.43;;
43933;SDS011;59081;42.706;23.306;2023-04-06T11:16:27;9.77;;;5.82;;
43933;SDS011;59081;42.706;23.306;2023-04-06T11:18:57;10.23;;;7.13;;
43933;SDS011;59081;42.706;23.306;2023-04-06T11:21:34;8.70;;;5.63;;
43933;SDS011;59081;42.706;23.306;2023-04-06T11:24:05;10.95;;;7.90;;
43933;SDS011;59081;42.706;23.306;2023-04-06T11:26:42;12.45;;;7.28;;
43933;SDS011;59081;42.706;23.306;2023-04-06T11:29:10;11.13;;;6.90;;
43933;SDS011;59081;42.706;23.306;2023-04-06T11:31:40;11.65;;;6.53;;
43933;SDS011;59081;42.706;23.306;2023-04-06T11:34:10;7.25;;;5.38;;
43933;SDS011;59081;42.706;23.306;2023-04-06T11:36:39;10.80;;;5.75;;
43933;SDS011;59081;42.706;23.306;2023-04-06T11:39:21;12.23;;;6.68;;
43933;SDS011;59081;42.706;23.306;2023-04-06T11:41:53;9.10;;;5.95;;
43933;SDS011;59081;42.706;23.306;2023-04-06T11:44:39;9.57;;;6.78;;
43933;SDS011;59081;42.706;23.306;2023-04-06T11:47:13;12.50;;;7.10;;
43933;SDS011;59081;42.706;23.306;2023-04-06T11:49:40;15.05;;;8.38;;
43933;SDS011;59081;42.706;23.306;2023-04-06T11:52:23;15.20;;;7.68;;
43933;SDS011;59081;42.706;23.306;2023-04-06T11:54:54;10.50;;;7.75;;
43933;SDS011;59081;42.706;23.306;2023-04-06T11:57:22;11.00;;;7.50;;
43933;SDS011;59081;42.706;23.306;2023-04-06T11:59:50;11.40;;;6.47;;
43933;SDS011;59081;42.706;23.306;2023-04-06T12:02:16;8.38;;;5.53;;
43933;SDS011;59081;42.706;23.306;2023-04-06T12:04:45;11.25;;;6.82;;
43933;SDS011;59081;42.706;23.306;2023-04-06T12:07:11;9.77;;;6.47;;
43933;SDS011;59081;42.706;23.306;2023-04-06T12:09:37;13.60;;;7.38;;
43933;SDS011;59081;42.706;23.306;2023-04-06T12:12:03;9.27;;;5.90;;
43933;SDS011;59081;42.706;23.306;2023-04-06T12:14:32;10.75;;;6.22;;
43933;SDS011;59081;42.706;23.306;2023-04-06T12:16:59;10.13;;;6.05;;
43933;SDS011;59081;42.706;23.306;2023-04-06T12:19:32;8.85;;;6.07;;
43933;SDS011;59081;42.706;23.306;2023-04-06T12:22:07;9.32;;;6.40;;
43933;SDS011;59081;42.706;23.306;2023-04-06T12:27:29;9.40;;;5.00;;
43933;SDS011;59081;42.706;23.306;2023-04-06T12:30:07;9.45;;;6.18;;
43933;SDS011;59081;42.706;23.306;2023-04-06T12:32:39;11.10;;;7.00;;
43933;SDS011;59081;42.706;23.306;2023-04-06T12:35:06;9.23;;;6.00;;
43933;SDS011;59081;42.706;23.306;2023-04-06T12:37:39;8.13;;;5.13;;
43933;SDS011;59081;42.706;23.306;2023-04-06T12:40:07;8.50;;;5.70;;
43933;SDS011;59081;42.706;23.306;2023-04-06T12:42:38;9.60;;;6.60;;
43933;SDS011;59081;42.706;23.306;2023-04-06T12:45:14;11.52;;;5.45;;
43933;SDS011;59081;42.706;23.306;2023-04-06T12:47:46;12.52;;;6.80;;
43933;SDS011;59081;42.706;23.306;2023-04-06T12:50:15;12.23;;;6.97;;
43933;SDS011;59081;42.706;23.306;2023-04-06T12:52:46;9.30;;;6.82;;
43933;SDS011;59081;42.706;23.306;2023-04-06T12:55:18;12.55;;;7.35;;
43933;SDS011;59081;42.706;23.306;2023-04-06T12:57:48;9.70;;;7.68;;
43933;SDS011;59081;42.706;23.306;2023-04-06T13:00:17;11.40;;;6.07;;
43933;SDS011;59081;42.706;23.306;2023-04-06T13:02:46;12.75;;;8.10;;
43933;SDS011;59081;42.706;23.306;2023-04-06T13:05:15;9.25;;;7.05;;
43933;SDS011;59081;42.706;23.306;2023-04-06T13:07:44;11.63;;;6.93;;
43933;SDS011;59081;42.706;23.306;2023-04-06T13:12:54;8.07;;;5.78;;
43933;SDS011;59081;42.706;23.306;2023-04-06T13:15:27;10.63;;;6.63;;
43933;SDS011;59081;42.706;23.306;2023-04-06T13:18:03;12.95;;;7.97;;
43933;SDS011;59081;42.706;23.306;2023-04-06T13:20:41;8.60;;;6.50;;
43933;SDS011;59081;42.706;23.306;2023-04-06T13:23:11;11.00;;;7.57;;
43933;SDS011;59081;42.706;23.306;2023-04-06T13:25:38;7.00;;;4.80;;
43933;SDS011;59081;42.706;23.306;2023-04-06T13:28:24;8.70;;;6.30;;
43933;SDS011;59081;42.706;23.306;2023-04-06T13:31:02;10.18;;;6.57;;
43933;SDS011;59081;42.706;23.306;2023-04-06T13:33:39;9.02;;;5.68;;
43933;SDS011;59081;42.706;23.306;2023-04-06T13:36:08;8.65;;;6.03;;
43933;SDS011;59081;42.706;23.306;2023-04-06T13:38:37;9.50;;;5.88;;
43933;SDS011;59081;42.706;23.306;2023-04-06T13:41:07;7.88;;;5.63;;
43933;SDS011;59081;42.706;23.306;2023-04-06T13:43:35;7.97;;;5.13;;
43933;SDS011;59081;42.706;23.306;2023-04-06T13:46:06;9.43;;;6.70;;
43933;SDS011;59081;42.706;23.306;2023-04-06T13:51:11;7.75;;;5.03;;
43933;SDS011;59081;42.706;23.306;2023-04-06T13:53:50;8.82;;;5.70;;
43933;SDS011;59081;42.706;23.306;2023-04-06T13:56:27;10.30;;;6.38;;
43933;SDS011;59081;42.706;23.306;2023-04-06T13:59:00;7.97;;;5.90;;
43933;SDS011;59081;42.706;23.306;2023-04-06T14:01:47;10.60;;;6.72;;
43933;SDS011;59081;42.706;23.306;2023-04-06T14:04:21;9.93;;;5.70;;
43933;SDS011;59081;42.706;23.306;2023-04-06T14:07:03;15.25;;;6.22;;
43933;SDS011;59081;42.706;23.306;2023-04-06T14:09:38;8.10;;;5.47;;
43933;SDS011;59081;42.706;23.306;2023-04-06T14:12:15;8.95;;;5.30;;
43933;SDS011;59081;42.706;23.306;2023-04-06T14:15:06;12.93;;;5.05;;
43933;SDS011;59081;42.706;23.306;2023-04-06T14:17:35;5.93;;;4.63;;
43933;SDS011;59081;42.706;23.306;2023-04-06T14:20:10;8.38;;;6.40;;
43933;SDS011;59081;42.706;23.306;2023-04-06T14:22:41;9.02;;;4.82;;
43933;SDS011;59081;42.706;23.306;2023-04-06T14:25:10;11.48;;;6.80;;
43933;SDS011;59081;42.706;23.306;2023-04-06T14:27:40;12.75;;;5.97;;
43933;SDS011;59081;42.706;23.306;2023-04-06T14:30:12;14.07;;;7.65;;
43933;SDS011;59081;42.706;23.306;2023-04-06T14:35:12;12.88;;;7.25;;
43933;SDS011;59081;42.706;23.306;2023-04-06T14:37:48;6.82;;;5.28;;
43933;SDS011;59081;42.706;23.306;2023-04-06T14:40:19;13.57;;;7.00;;
43933;SDS011;59081;42.706;23.306;2023-04-06T14:42:45;9.00;;;6.95;;
43933;SDS011;59081;42.706;23.306;2023-04-06T14:45:16;7.13;;;4.95;;
43933;SDS011;59081;42.706;23.306;2023-04-06T14:47:53;14.90;;;7.25;;
43933;SDS011;59081;42.706;23.306;2023-04-06T14:50:26;17.58;;;8.48;;
43933;SDS011;59081;42.706;23.306;2023-04-06T14:53:00;16.95;;;7.07;;
43933;SDS011;59081;42.706;23.306;2023-04-06T14:55:42;13.32;;;8.10;;
43933;SDS011;59081;42.706;23.306;2023-04-06T15:06:55;19.40;;;7.90;;
43933;SDS011;59081;42.706;23.306;2023-04-06T15:09:24;14.70;;;7.47;;
43933;SDS011;59081;42.706;23.306;2023-04-06T15:12:07;10.85;;;6.85;;
43933;SDS011;59081;42.706;23.306;2023-04-06T15:14:35;11.55;;;6.63;;
43933;SDS011;59081;42.706;23.306;2023-04-06T15:17:10;10.98;;;7.07;;
43933;SDS011;59081;42.706;23.306;2023-04-06T15:19:48;11.82;;;8.70;;
43933;SDS011;59081;42.706;23.306;2023-04-06T15:22:15;9.75;;;7.38;;
43933;SDS011;59081;42.706;23.306;2023-04-06T15:24:45;14.50;;;8.43;;
43933;SDS011;59081;42.706;23.306;2023-04-06T15:29:53;16.92;;;9.00;;
43933;SDS011;59081;42.706;23.306;2023-04-06T15:32:19;16.38;;;9.55;;
43933;SDS011;59081;42.706;23.306;2023-04-06T15:34:55;7.75;;;4.93;;
43933;SDS011;59081;42.706;23.306;2023-04-06T15:37:22;15.20;;;10.00;;
43933;SDS011;59081;42.706;23.306;2023-04-06T15:39:51;11.48;;;8.07;;
43933;SDS011;59081;42.706;23.306;2023-04-06T15:42:18;19.90;;;8.68;;
43933;SDS011;59081;42.706;23.306;2023-04-06T15:44:46;18.10;;;12.10;;
43933;SDS011;59081;42.706;23.306;2023-04-06T15:47:15;15.88;;;9.05;;
43933;SDS011;59081;42.706;23.306;2023-04-06T15:49:49;15.40;;;9.15;;
43933;SDS011;59081;42.706;23.306;2023-04-06T15:52:21;14.73;;;10.10;;
43933;SDS011;59081;42.706;23.306;2023-04-06T15:54:52;15.68;;;10.25;;
43933;SDS011;59081;42.706;23.306;2023-04-06T15:57:25;11.48;;;7.50;;
43933;SDS011;59081;42.706;23.306;2023-04-06T15:59:54;13.45;;;9.25;;
43933;SDS011;59081;42.706;23.306;2023-04-06T16:02:20;14.35;;;10.40;;
43933;SDS011;59081;42.706;23.306;2023-04-06T16:04:58;21.15;;;9.65;;
43933;SDS011;59081;42.706;23.306;2023-04-06T16:07:30;18.00;;;9.70;;
43933;SDS011;59081;42.706;23.306;2023-04-06T16:09:59;14.48;;;8.57;;
43933;SDS011;59081;42.706;23.306;2023-04-06T16:12:26;8.75;;;6.18;;
43933;SDS011;59081;42.706;23.306;2023-04-06T16:15:06;12.20;;;7.82;;
43933;SDS011;59081;42.706;23.306;2023-04-06T16:17:52;18.98;;;10.18;;
43933;SDS011;59081;42.706;23.306;2023-04-06T16:20:27;18.00;;;10.73;;
43933;SDS011;59081;42.706;23.306;2023-04-06T16:22:59;19.15;;;11.20;;
43933;SDS011;59081;42.706;23.306;2023-04-06T16:25:37;14.35;;;8.70;;
43933;SDS011;59081;42.706;23.306;2023-04-06T16:28:07;16.13;;;9.05;;
43933;SDS011;59081;42.706;23.306;2023-04-06T16:30:38;15.75;;;10.35;;
43933;SDS011;59081;42.706;23.306;2023-04-06T16:33:08;12.13;;;7.72;;
43933;SDS011;59081;42.706;23.306;2023-04-06T16:35:34;16.58;;;9.15;;
43933;SDS011;59081;42.706;23.306;2023-04-06T16:37:59;21.67;;;13.23;;
43933;SDS011;59081;42.706;23.306;2023-04-06T16:40:32;19.20;;;11.70;;
43933;SDS011;59081;42.706;23.306;2023-04-06T16:42:57;17.80;;;10.20;;
43933;SDS011;59081;42.706;23.306;2023-04-06T16:45:23;17.70;;;10.18;;
43933;SDS011;59081;42.706;23.306;2023-04-06T16:47:52;9.82;;;6.97;;
43933;SDS011;59081;42.706;23.306;2023-04-06T16:50:25;13.02;;;8.60;;
43933;SDS011;59081;42.706;23.306;2023-04-06T16:53:00;16.02;;;9.90;;
43933;SDS011;59081;42.706;23.306;2023-04-06T16:55:37;11.35;;;7.93;;
43933;SDS011;59081;42.706;23.306;2023-04-06T16:58:14;15.00;;;8.98;;
43933;SDS011;59081;42.706;23.306;2023-04-06T17:01:01;18.20;;;9.98;;
43933;SDS011;59081;42.706;23.306;2023-04-06T17:03:44;13.27;;;9.00;;
43933;SDS011;59081;42.706;23.306;2023-04-06T17:32:04;12.43;;;5.38;;
43933;SDS011;59081;42.706;23.306;2023-04-06T17:34:30;14.02;;;8.77;;
43933;SDS011;59081;42.706;23.306;2023-04-06T17:36:58;15.88;;;8.93;;